Terminal Aerodrome Forecast
Issued by NWS Sioux Falls, SD

Home | Current Version | Previous Version | Graphics & Text | Print | Product List | Glossary Off
Versions: 1 2 3 4 5 6 7 8 9 10 11 12 13 14 15 16 17 18 19

661
FTUS43 KFSD 201627 AAB
TAFFSD
TAF AMD
KFSD 201627Z 2016/2112 18008KT 4SM BR OVC008
     FM201900 22011KT P6SM BKN010
     FM202100 29012KT P6SM SCT090
     FM210700 23005KT P6SM SKC=

USA.gov is the U.S. government's official web portal to all federal, state and local government web resources and services.